La Crescent, Minnesota
Current Conditions -  °F | °C
As of 6:53 PM on Wednesday 17 Dec 2014 (Local Time) from KLSE Reporting Station
Overcast Overcast  
Wind Chill: 15°   Ceiling: 2000
Heat Index: 21°   Visibility: 10mi
Dew Point: 12°   Wind: 5mph
Humidity: 68%   Direction: 350°N
Pressure: 30.32"   Gusts: NA
Location:  43.83°N, 91.3°W
Report Text: KLSE 180053Z 35004KT 10SM OVC020 M06/M11 A3032 RMK AO2 SLP283 T10611111
Loading
Personal Weather Stations






























Interactive Weather Map New forecast layout! Learn more

10-Day Weather Forecast

Advertisements
Track Severe Weather on mobile